Time;durP1;ratioP1;P1;durP2;ratioP2;P2;SDS_P1;SDS_P2;PMS_P1;PMS_P2;Temp;Humidity;BMP_temperature;BMP_pressure;BME280_temperature;BME280_humidity;BME280_pressure;Samples;Min_cycle;Max_cycle;Signal;HPM_P1;HPM_P2
2023/05/23 00:01:13;;;;;;;10.48;9.23;;;18.50;99.90;;;;;;4983153;28;20050;-77
2023/05/23 00:03:40;;;;;;;9.98;8.73;;;18.40;99.90;;;;;;4977843;28;20449;-77
2023/05/23 00:06:07;;;;;;;13.05;9.50;;;18.40;99.90;;;;;;4984302;28;20542;-78
2023/05/23 00:08:34;;;;;;;13.38;9.70;;;18.40;99.90;;;;;;4981974;28;20046;-77
2023/05/23 00:11:01;;;;;;;13.15;8.88;;;18.30;99.90;;;;;;4967907;28;20105;-77
2023/05/23 00:13:27;;;;;;;16.65;10.52;;;18.30;99.90;;;;;;4986463;28;20484;-77
2023/05/23 00:15:54;;;;;;;11.85;9.70;;;18.30;99.90;;;;;;4983351;28;20050;-77
2023/05/23 00:18:23;;;;;;;11.13;9.35;;;18.20;99.90;;;;;;4980606;28;20039;-77
2023/05/23 00:20:50;;;;;;;13.38;10.40;;;18.20;99.90;;;;;;4982273;28;20133;-77
2023/05/23 00:23:21;;;;;;;12.02;10.55;;;18.20;99.90;;;;;;4981088;28;20065;-77
2023/05/23 00:25:51;;;;;;;10.75;9.15;;;18.10;99.90;;;;;;4986331;28;20096;-77
2023/05/23 00:28:19;;;;;;;11.25;9.88;;;18.10;99.90;;;;;;4985056;28;20046;-76
2023/05/23 00:30:47;;;;;;;13.65;9.95;;;18.10;99.90;;;;;;4980673;28;20074;-77
2023/05/23 00:33:15;;;;;;;12.40;10.00;;;18.00;99.90;;;;;;4979805;28;20053;-77
2023/05/23 00:35:42;;;;;;;11.63;9.75;;;18.00;99.90;;;;;;4981797;28;20078;-77
2023/05/23 00:38:10;;;;;;;11.63;9.70;;;18.00;99.90;;;;;;4980386;28;20046;-77
2023/05/23 00:40:37;;;;;;;11.98;9.93;;;18.00;99.90;;;;;;4984124;28;20054;-77
2023/05/23 00:43:04;;;;;;;14.02;9.60;;;17.90;99.90;;;;;;4986686;28;20074;-78
2023/05/23 00:45:30;;;;;;;13.98;9.90;;;17.90;99.90;;;;;;4983535;28;20046;-77
2023/05/23 00:47:58;;;;;;;10.82;9.73;;;17.90;99.90;;;;;;4979347;28;20101;-77
2023/05/23 00:50:30;;;;;;;15.05;9.82;;;17.90;99.90;;;;;;4981344;28;20046;-77
2023/05/23 00:52:59;;;;;;;11.77;9.27;;;17.80;99.90;;;;;;4964334;28;20086;-77
2023/05/23 00:55:27;;;;;;;10.27;9.27;;;17.80;99.90;;;;;;4982864;28;20049;-77
2023/05/23 00:57:55;;;;;;;12.07;9.57;;;17.70;99.90;;;;;;4986937;28;20042;-77
2023/05/23 01:00:24;;;;;;;12.85;9.98;;;17.70;99.90;;;;;;4983453;28;20042;-77
2023/05/23 01:02:52;;;;;;;13.70;10.60;;;17.70;99.90;;;;;;4975427;28;20450;-77
2023/05/23 01:05:21;;;;;;;11.50;10.30;;;17.70;99.90;;;;;;4988161;28;20042;-77
2023/05/23 01:07:49;;;;;;;14.27;11.82;;;17.60;99.90;;;;;;4981628;28;20056;-77
2023/05/23 01:10:20;;;;;;;13.45;11.43;;;17.60;99.90;;;;;;4968982;28;20054;-77
2023/05/23 01:12:52;;;;;;;14.48;11.57;;;17.50;99.90;;;;;;4986554;28;20491;-77
2023/05/23 01:15:22;;;;;;;17.00;12.85;;;17.40;99.90;;;;;;4980534;28;20050;-77
2023/05/23 01:18:01;;;;;;;14.60;12.00;;;17.40;99.90;;;;;;4975260;28;20039;-77
2023/05/23 01:20:45;;;;;;;13.70;11.80;;;17.40;99.90;;;;;;4980567;28;20461;-77
2023/05/23 01:23:24;;;;;;;14.85;12.98;;;17.40;99.90;;;;;;4982038;28;20085;-77
2023/05/23 01:26:05;;;;;;;14.90;11.57;;;17.30;99.90;;;;;;4982747;28;20078;-77
2023/05/23 01:28:36;;;;;;;14.10;11.70;;;17.30;99.90;;;;;;4984110;28;20514;-77
2023/05/23 01:31:07;;;;;;;15.23;11.35;;;17.30;99.90;;;;;;4972537;28;20051;-77
2023/05/23 01:33:35;;;;;;;15.68;11.93;;;17.30;99.90;;;;;;4978638;28;20042;-77
2023/05/23 01:36:04;;;;;;;12.95;10.90;;;17.20;99.90;;;;;;4982652;28;20498;-77
2023/05/23 01:38:31;;;;;;;13.77;11.57;;;17.20;99.90;;;;;;4981312;28;20043;-77
2023/05/23 01:40:58;;;;;;;15.48;11.38;;;17.30;99.90;;;;;;4982949;28;20574;-77
2023/05/23 01:43:25;;;;;;;13.00;10.90;;;17.30;99.90;;;;;;4987551;28;20422;-77
2023/05/23 01:45:54;;;;;;;12.15;10.77;;;17.30;99.90;;;;;;4978734;28;20053;-77
2023/05/23 01:48:23;;;;;;;14.18;11.45;;;17.30;99.90;;;;;;4991804;28;20042;-77
2023/05/23 01:50:51;;;;;;;17.80;12.25;;;17.40;99.90;;;;;;4981197;28;20078;-77
2023/05/23 01:53:20;;;;;;;18.00;12.07;;;17.40;99.90;;;;;;4985523;28;20042;-78
2023/05/23 01:55:48;;;;;;;16.67;11.97;;;17.40;99.90;;;;;;4982108;28;20042;-77
2023/05/23 01:58:14;;;;;;;18.98;12.13;;;17.50;99.90;;;;;;4987105;28;20054;-77
2023/05/23 02:00:41;;;;;;;15.27;11.93;;;17.50;99.90;;;;;;4981470;28;20042;-77
2023/05/23 02:03:08;;;;;;;15.30;11.57;;;17.60;99.90;;;;;;4976122;28;20047;-77
2023/05/23 02:05:35;;;;;;;15.15;11.98;;;17.70;99.90;;;;;;4984743;28;20125;-77
2023/05/23 02:08:02;;;;;;;18.30;12.93;;;17.70;99.90;;;;;;4981099;28;20077;-77
2023/05/23 02:10:29;;;;;;;18.20;12.15;;;17.80;99.90;;;;;;4983131;28;20430;-77
2023/05/23 02:12:55;;;;;;;13.63;11.27;;;17.80;99.90;;;;;;4985742;28;20407;-77
2023/05/23 02:15:22;;;;;;;16.35;11.93;;;17.90;99.90;;;;;;4972963;28;20050;-76
2023/05/23 02:17:50;;;;;;;16.42;12.02;;;17.90;99.90;;;;;;4977831;28;20073;-76
2023/05/23 02:20:17;;;;;;;14.85;12.48;;;18.00;99.90;;;;;;4986103;28;20515;-77
2023/05/23 02:22:45;;;;;;;16.13;12.27;;;18.00;99.90;;;;;;4980187;28;20051;-77
2023/05/23 02:25:12;;;;;;;14.60;12.10;;;18.10;99.90;;;;;;4983986;28;20043;-77
2023/05/23 02:27:38;;;;;;;14.05;12.30;;;18.10;99.90;;;;;;4984457;28;20050;-77
2023/05/23 02:30:06;;;;;;;14.35;12.25;;;18.10;99.90;;;;;;4981363;28;20047;-77
2023/05/23 02:32:33;;;;;;;15.40;12.60;;;18.20;99.90;;;;;;4978115;28;20046;-76
2023/05/23 02:35:01;;;;;;;16.90;12.20;;;18.20;99.90;;;;;;4983875;28;20101;-76
2023/05/23 02:37:27;;;;;;;14.18;12.27;;;18.30;99.90;;;;;;4964314;28;20049;-77
2023/05/23 02:39:55;;;;;;;17.27;13.55;;;18.20;99.90;;;;;;4983490;28;20053;-77
2023/05/23 02:42:22;;;;;;;15.23;12.00;;;18.30;99.90;;;;;;4984632;28;20042;-77
2023/05/23 02:44:48;;;;;;;15.48;13.10;;;18.30;99.90;;;;;;4981931;28;20404;-77
2023/05/23 02:47:15;;;;;;;15.20;13.07;;;18.20;99.90;;;;;;4979486;28;20054;-77
2023/05/23 02:49:42;;;;;;;17.27;14.30;;;18.30;99.90;;;;;;4986344;28;20117;-77
2023/05/23 02:52:08;;;;;;;24.33;16.33;;;18.20;99.90;;;;;;4968144;28;20086;-77
2023/05/23 02:54:35;;;;;;;21.30;16.05;;;18.20;99.90;;;;;;4975651;28;20126;-77
2023/05/23 02:57:03;;;;;;;17.85;14.77;;;18.10;99.90;;;;;;4985800;28;20125;-76
2023/05/23 02:59:29;;;;;;;25.20;16.40;;;18.10;99.90;;;;;;4975939;28;20593;-77
2023/05/23 03:01:56;;;;;;;20.20;16.38;;;18.10;99.90;;;;;;4978735;28;20047;-77
2023/05/23 03:04:23;;;;;;;22.40;17.58;;;18.00;99.90;;;;;;4986681;28;20101;-76
2023/05/23 03:06:53;;;;;;;19.77;15.98;;;18.00;99.90;;;;;;4983383;28;20053;-77
2023/05/23 03:09:20;;;;;;;23.88;18.10;;;17.90;99.90;;;;;;4986380;28;20137;-76
2023/05/23 03:11:47;;;;;;;24.98;18.02;;;17.90;99.90;;;;;;4985030;28;20082;-77
2023/05/23 03:14:14;;;;;;;23.60;19.10;;;17.90;99.90;;;;;;4987541;28;20089;-76
2023/05/23 03:16:41;;;;;;;25.60;20.40;;;17.80;99.90;;;;;;4982808;28;20532;-77
2023/05/23 03:19:08;;;;;;;25.20;20.45;;;17.80;99.90;;;;;;4983989;28;20042;-77
2023/05/23 03:21:35;;;;;;;27.80;19.95;;;17.80;99.90;;;;;;4983831;28;20053;-77
2023/05/23 03:24:02;;;;;;;23.98;18.83;;;17.70;99.90;;;;;;4975485;28;20572;-77
2023/05/23 03:26:29;;;;;;;25.83;20.17;;;17.70;99.90;;;;;;4984852;28;20050;-77
2023/05/23 03:28:56;;;;;;;26.65;20.80;;;17.70;99.90;;;;;;5002228;28;20515;-77
2023/05/23 03:31:23;;;;;;;29.52;20.58;;;17.70;99.90;;;;;;4979958;28;20165;-77
2023/05/23 03:33:50;;;;;;;29.20;20.83;;;17.70;99.90;;;;;;4979964;28;20039;-77
2023/05/23 03:36:17;;;;;;;25.23;20.20;;;17.70;99.90;;;;;;4985923;28;20481;-77
2023/05/23 03:38:44;;;;;;;30.20;19.15;;;17.70;99.90;;;;;;4984188;28;20050;-77
2023/05/23 03:41:10;;;;;;;27.00;21.77;;;17.60;99.90;;;;;;4984287;28;20134;-77
2023/05/23 03:43:37;;;;;;;28.27;20.70;;;17.60;99.90;;;;;;4989338;28;20093;-77
2023/05/23 03:46:04;;;;;;;29.45;21.73;;;17.60;99.90;;;;;;4979708;28;20126;-77
2023/05/23 03:48:31;;;;;;;25.58;20.20;;;17.60;99.90;;;;;;4981065;28;20050;-77
2023/05/23 03:50:58;;;;;;;30.10;22.10;;;17.50;99.90;;;;;;4983758;28;20473;-77
2023/05/23 03:53:25;;;;;;;26.35;21.38;;;17.50;99.90;;;;;;4985726;28;20553;-77
2023/05/23 03:55:52;;;;;;;25.63;21.23;;;17.40;99.90;;;;;;4982842;28;20046;-77
2023/05/23 03:58:19;;;;;;;29.45;20.75;;;17.40;99.90;;;;;;4989449;28;20473;-76
2023/05/23 04:00:46;;;;;;;25.90;20.27;;;17.40;99.90;;;;;;4979356;28;20067;-77
2023/05/23 04:03:14;;;;;;;30.98;20.27;;;17.30;99.90;;;;;;4985410;28;20085;-77
2023/05/23 04:05:41;;;;;;;26.23;21.33;;;17.30;99.90;;;;;;4983470;28;20050;-77
2023/05/23 04:08:08;;;;;;;24.45;19.58;;;17.30;99.90;;;;;;4983094;28;20129;-77
2023/05/23 04:10:35;;;;;;;25.35;19.35;;;17.30;99.90;;;;;;4965649;28;20550;-77
2023/05/23 04:13:02;;;;;;;26.08;20.20;;;17.20;99.90;;;;;;4988403;28;20129;-77
2023/05/23 04:15:29;;;;;;;29.35;20.88;;;17.20;99.90;;;;;;4979857;28;20050;-77
2023/05/23 04:17:56;;;;;;;27.48;20.88;;;17.20;99.90;;;;;;4979040;28;20510;-77
2023/05/23 04:20:23;;;;;;;29.13;20.58;;;17.10;99.90;;;;;;4985824;28;20066;-77
2023/05/23 04:22:50;;;;;;;35.17;22.27;;;17.10;99.90;;;;;;4965865;28;20047;-77
2023/05/23 04:25:19;;;;;;;24.77;19.27;;;17.10;99.90;;;;;;4984120;28;20410;-77
2023/05/23 04:27:46;;;;;;;22.77;19.02;;;17.10;99.90;;;;;;4984782;28;20050;-77
2023/05/23 04:30:13;;;;;;;26.08;20.50;;;17.10;99.90;;;;;;4981066;28;20047;-77
2023/05/23 04:32:39;;;;;;;25.38;19.63;;;17.10;99.90;;;;;;4981054;28;20426;-77
2023/05/23 04:35:06;;;;;;;23.77;19.13;;;17.10;99.90;;;;;;4984474;28;20106;-77
2023/05/23 04:37:34;;;;;;;25.88;20.35;;;17.10;99.90;;;;;;4985184;28;20058;-77
2023/05/23 04:40:00;;;;;;;25.73;19.88;;;17.10;99.90;;;;;;4985609;28;20057;-77
2023/05/23 04:42:28;;;;;;;24.02;20.38;;;17.10;99.90;;;;;;4987032;28;20046;-77
2023/05/23 04:44:57;;;;;;;22.33;19.25;;;17.10;99.90;;;;;;4983046;28;20078;-78
2023/05/23 04:47:26;;;;;;;25.77;19.73;;;17.20;99.90;;;;;;4964042;28;20096;-77
2023/05/23 04:49:56;;;;;;;26.07;21.07;;;17.20;99.90;;;;;;4985232;28;20065;-77
2023/05/23 04:52:24;;;;;;;29.90;20.38;;;17.20;99.90;;;;;;4983663;28;20125;-77
2023/05/23 04:54:52;;;;;;;27.23;19.70;;;17.20;99.90;;;;;;4983494;28;20142;-77
2023/05/23 04:57:19;;;;;;;25.95;20.77;;;17.20;99.90;;;;;;4984044;28;20129;-77
2023/05/23 04:59:46;;;;;;;25.50;20.15;;;17.20;99.90;;;;;;4979879;28;20122;-76
2023/05/23 05:02:13;;;;;;;26.83;21.35;;;17.20;99.90;;;;;;4976603;28;20074;-77
2023/05/23 05:04:39;;;;;;;27.95;22.35;;;17.30;99.90;;;;;;4986188;28;20121;-77
2023/05/23 05:07:06;;;;;;;45.03;23.45;;;17.30;99.90;;;;;;4982140;28;20046;-76
2023/05/23 05:09:33;;;;;;;45.22;24.23;;;17.30;99.90;;;;;;4983577;28;20125;-77
2023/05/23 05:12:00;;;;;;;45.63;23.02;;;17.40;99.90;;;;;;4983331;28;20050;-76
2023/05/23 05:14:27;;;;;;;33.67;22.88;;;17.40;99.90;;;;;;4982140;28;20109;-77
2023/05/23 05:16:56;;;;;;;51.33;23.52;;;17.40;99.90;;;;;;4975006;28;20050;-77
2023/05/23 05:19:23;;;;;;;51.03;26.30;;;17.40;99.90;;;;;;4986158;28;20047;-77
2023/05/23 05:21:51;;;;;;;41.40;24.58;;;17.50;99.90;;;;;;4982253;28;20097;-77
2023/05/23 05:24:19;;;;;;;42.95;25.20;;;17.50;99.90;;;;;;4983776;28;20074;-77
2023/05/23 05:26:47;;;;;;;39.13;23.27;;;17.50;99.90;;;;;;4981046;28;20042;-77
2023/05/23 05:29:14;;;;;;;33.58;23.02;;;17.60;99.90;;;;;;4981836;28;20109;-77
2023/05/23 05:31:42;;;;;;;32.85;24.02;;;17.70;99.90;;;;;;4976122;28;20046;-77
2023/05/23 05:34:09;;;;;;;31.50;24.73;;;17.70;99.90;;;;;;4984601;28;20047;-77
2023/05/23 05:36:35;;;;;;;30.33;23.02;;;17.70;99.90;;;;;;4982039;28;20046;-77
2023/05/23 05:39:02;;;;;;;30.10;23.40;;;17.70;99.90;;;;;;4966246;28;20133;-77
2023/05/23 05:41:29;;;;;;;43.10;27.20;;;17.70;99.90;;;;;;4981250;28;20093;-78
2023/05/23 05:43:55;;;;;;;35.95;26.45;;;17.70;99.90;;;;;;4982234;28;20043;-77
2023/05/23 05:46:22;;;;;;;34.53;26.20;;;17.80;99.90;;;;;;4979161;28;20403;-77
2023/05/23 05:48:49;;;;;;;38.63;26.25;;;17.80;99.90;;;;;;4983261;28;20042;-77
2023/05/23 05:51:16;;;;;;;35.10;26.52;;;17.80;99.90;;;;;;4983423;28;20082;-77
2023/05/23 05:53:43;;;;;;;35.90;26.02;;;17.90;99.90;;;;;;4982592;28;20053;-77
2023/05/23 05:56:09;;;;;;;32.78;24.67;;;18.00;99.90;;;;;;4983736;28;20060;-76
2023/05/23 05:58:36;;;;;;;36.03;27.25;;;18.00;99.90;;;;;;4979787;28;20046;-76
2023/05/23 06:01:04;;;;;;;33.58;26.70;;;18.00;99.90;;;;;;4978392;28;20530;-77
2023/05/23 06:03:32;;;;;;;36.10;26.60;;;18.00;99.90;;;;;;4983053;28;20518;-77
2023/05/23 06:05:59;;;;;;;39.60;27.27;;;18.00;99.90;;;;;;4981351;28;20058;-77
2023/05/23 06:08:26;;;;;;;35.40;27.33;;;18.00;99.90;;;;;;4983505;28;20055;-77
2023/05/23 06:10:53;;;;;;;35.30;26.27;;;18.00;99.90;;;;;;4981495;28;20141;-77
2023/05/23 06:13:20;;;;;;;36.78;27.33;;;18.00;99.90;;;;;;4985006;28;20134;-76
2023/05/23 06:15:46;;;;;;;35.05;27.88;;;18.00;99.90;;;;;;4977733;28;20098;-77
2023/05/23 06:18:13;;;;;;;39.45;27.90;;;18.00;99.90;;;;;;4980556;28;20065;-77
2023/05/23 06:20:40;;;;;;;36.55;27.88;;;18.00;99.90;;;;;;4982432;28;20129;-77
2023/05/23 06:23:07;;;;;;;38.40;28.58;;;18.00;99.90;;;;;;4986269;28;20044;-77
2023/05/23 06:25:34;;;;;;;34.78;27.77;;;18.00;99.90;;;;;;4985838;28;20494;-77
2023/05/23 06:28:01;;;;;;;39.20;28.67;;;18.00;99.90;;;;;;4988770;28;20427;-76
2023/05/23 06:30:28;;;;;;;35.85;26.88;;;18.00;99.90;;;;;;4983746;28;20050;-77
2023/05/23 06:32:55;;;;;;;36.92;28.42;;;18.00;99.90;;;;;;4983266;28;20422;-77
2023/05/23 06:35:22;;;;;;;39.38;28.85;;;18.00;99.90;;;;;;4986974;28;20456;-76
2023/05/23 06:37:48;;;;;;;36.97;28.40;;;18.00;99.90;;;;;;4984867;28;20080;-76
2023/05/23 06:40:15;;;;;;;37.83;30.17;;;18.00;99.90;;;;;;4974932;28;20137;-79
2023/05/23 06:42:42;;;;;;;42.65;29.08;;;18.00;99.90;;;;;;4986647;28;20042;-76
2023/05/23 06:45:09;;;;;;;42.08;29.75;;;18.10;99.90;;;;;;4980141;28;20070;-77
2023/05/23 06:47:36;;;;;;;43.78;30.13;;;18.10;99.90;;;;;;4981201;28;20042;-77
2023/05/23 06:50:03;;;;;;;46.47;29.90;;;18.10;99.90;;;;;;4987109;28;20494;-77
2023/05/23 06:52:30;;;;;;;38.30;28.90;;;18.10;99.90;;;;;;5001088;28;20054;-77
2023/05/23 06:54:56;;;;;;;43.35;28.67;;;18.10;99.90;;;;;;4975381;28;20085;-77
2023/05/23 06:57:23;;;;;;;42.30;28.85;;;18.10;99.90;;;;;;4972161;28;20561;-76
2023/05/23 06:59:50;;;;;;;47.40;30.60;;;18.10;99.90;;;;;;4980453;28;20051;-76
2023/05/23 07:02:16;;;;;;;40.72;29.33;;;18.20;99.90;;;;;;4981618;28;20138;-76
2023/05/23 07:04:43;;;;;;;37.97;29.63;;;18.20;99.90;;;;;;4987602;28;20046;-75
2023/05/23 07:07:10;;;;;;;41.35;29.70;;;18.20;99.90;;;;;;4984424;28;20057;-76
2023/05/23 07:09:37;;;;;;;44.42;30.58;;;18.20;99.90;;;;;;4973729;28;20568;-76
2023/05/23 07:12:05;;;;;;;44.30;30.58;;;18.20;99.90;;;;;;4989024;28;20104;-76
2023/05/23 07:14:34;;;;;;;50.22;32.60;;;18.30;99.90;;;;;;4982081;28;20046;-76
2023/05/23 07:17:01;;;;;;;45.17;31.15;;;18.20;99.90;;;;;;4977522;28;20047;-76
2023/05/23 07:19:28;;;;;;;44.72;31.73;;;18.30;99.90;;;;;;5002962;28;20065;-76
2023/05/23 07:21:54;;;;;;;46.67;32.28;;;18.30;99.90;;;;;;4985824;28;20046;-76
2023/05/23 07:24:21;;;;;;;40.60;32.10;;;18.30;99.90;;;;;;4987523;28;20050;-76
2023/05/23 07:26:50;;;;;;;41.33;31.13;;;18.30;99.90;;;;;;4986633;28;20042;-76
2023/05/23 07:29:17;;;;;;;49.60;31.05;;;18.30;99.90;;;;;;4986042;28;20050;-76
2023/05/23 07:31:44;;;;;;;43.03;31.63;;;18.30;99.90;;;;;;4978930;28;20062;-76
2023/05/23 07:34:11;;;;;;;39.13;30.83;;;18.50;99.90;;;;;;4986300;28;20450;-76
2023/05/23 07:36:39;;;;;;;39.75;30.67;;;18.60;99.90;;;;;;4965067;28;20050;-76
2023/05/23 07:39:06;;;;;;;44.63;31.70;;;18.70;99.90;;;;;;4984006;28;20081;-75
2023/05/23 07:41:33;;;;;;;42.05;31.67;;;18.80;99.90;;;;;;4986506;28;20065;-75
2023/05/23 07:44:00;;;;;;;41.38;31.67;;;18.80;99.90;;;;;;4985765;28;20049;-76
2023/05/23 07:46:26;;;;;;;41.63;30.80;;;18.90;99.90;;;;;;4979567;28;20051;-76
2023/05/23 07:48:54;;;;;;;45.15;31.20;;;19.00;99.90;;;;;;4988147;28;20510;-76
2023/05/23 07:51:20;;;;;;;44.83;32.08;;;19.00;99.90;;;;;;4987149;28;20500;-76
2023/05/23 07:53:47;;;;;;;43.22;30.73;;;19.10;99.90;;;;;;4987180;28;20046;-76
2023/05/23 07:56:14;;;;;;;43.95;31.60;;;19.10;99.90;;;;;;4982813;28;20051;-75
2023/05/23 07:58:41;;;;;;;39.13;29.00;;;19.20;99.90;;;;;;4990713;28;20102;-76
2023/05/23 08:01:07;;;;;;;39.08;29.77;;;19.40;99.90;;;;;;4985453;28;20082;-75
2023/05/23 08:03:34;;;;;;;37.72;29.60;;;19.50;99.90;;;;;;4989580;28;20522;-75
2023/05/23 08:06:01;;;;;;;37.80;30.77;;;19.60;99.90;;;;;;4989769;28;20077;-77
2023/05/23 08:08:28;;;;;;;45.47;31.13;;;19.70;99.90;;;;;;4995960;28;20070;-75
2023/05/23 08:10:54;;;;;;;38.17;29.90;;;19.60;99.90;;;;;;4974660;28;20104;-76
2023/05/23 08:13:21;;;;;;;37.80;30.65;;;19.60;99.90;;;;;;4991422;28;20081;-76
2023/05/23 08:15:48;;;;;;;49.78;33.25;;;19.70;99.90;;;;;;4986007;28;20057;-76
2023/05/23 08:18:15;;;;;;;48.28;33.78;;;19.60;99.90;;;;;;4988015;28;20506;-74
2023/05/23 08:20:42;;;;;;;42.70;32.65;;;19.60;99.90;;;;;;4985155;28;20049;-76
2023/05/23 08:23:10;;;;;;;43.92;32.15;;;19.60;99.90;;;;;;4984801;28;20042;-75
2023/05/23 08:25:37;;;;;;;45.85;32.78;;;19.70;99.90;;;;;;4988701;28;20041;-76
2023/05/23 08:28:04;;;;;;;57.38;34.72;;;19.90;99.90;;;;;;4987494;28;20066;-78
2023/05/23 08:30:32;;;;;;;48.33;33.92;;;20.00;99.90;;;;;;4985858;28;20141;-76
2023/05/23 08:33:03;;;;;;;51.03;33.50;;;20.10;99.90;;;;;;4984172;28;20137;-77
2023/05/23 08:35:35;;;;;;;48.88;34.75;;;20.20;99.90;;;;;;4989903;28;20431;-77
2023/05/23 08:38:06;;;;;;;43.67;32.33;;;20.30;99.90;;;;;;4985868;28;20061;-75
2023/05/23 08:40:35;;;;;;;55.92;33.55;;;20.30;99.90;;;;;;4983818;28;20047;-74
2023/05/23 08:43:02;;;;;;;43.58;32.60;;;20.30;99.90;;;;;;4999588;28;20103;-75
2023/05/23 08:45:29;;;;;;;46.60;33.92;;;20.30;99.90;;;;;;4984708;28;20046;-75
2023/05/23 08:47:59;;;;;;;45.72;32.75;;;20.40;99.90;;;;;;4984522;28;20047;-77
2023/05/23 08:50:29;;;;;;;51.17;33.47;;;20.50;99.90;;;;;;4989497;28;20057;-75
2023/05/23 08:52:57;;;;;;;53.67;35.30;;;20.50;99.90;;;;;;4986184;28;20065;-75
2023/05/23 08:55:26;;;;;;;50.53;34.38;;;20.60;99.90;;;;;;4983643;28;20403;-75
2023/05/23 08:58:00;;;;;;;50.55;33.10;;;20.60;99.90;;;;;;4982320;28;20052;-74
2023/05/23 09:00:27;;;;;;;45.50;33.35;;;20.70;99.90;;;;;;4981059;28;20113;-75
2023/05/23 09:02:55;;;;;;;47.50;31.98;;;20.80;99.90;;;;;;5000687;28;20078;-74
2023/05/23 09:05:22;;;;;;;46.00;33.33;;;20.90;99.90;;;;;;5000576;23;20102;-77
2023/05/23 09:07:53;;;;;;;47.75;33.00;;;21.00;99.90;;;;;;5052602;28;20063;-77
2023/05/23 09:10:20;;;;;;;44.13;32.38;;;21.00;99.90;;;;;;5051823;28;20524;-77
2023/05/23 09:12:48;;;;;;;45.97;34.17;;;21.10;99.90;;;;;;5052044;28;20094;-78
2023/05/23 09:15:16;;;;;;;44.28;32.60;;;20.80;99.90;;;;;;5033830;28;20447;-77
2023/05/23 09:17:43;;;;;;;47.35;34.92;;;20.70;99.90;;;;;;5049902;28;20132;-77
2023/05/23 09:20:13;;;;;;;45.95;34.50;;;20.60;99.90;;;;;;5046720;28;20045;-77
2023/05/23 09:22:44;;;;;;;44.95;35.78;;;20.50;99.90;;;;;;5053483;28;20045;-77
2023/05/23 09:25:11;;;;;;;45.90;34.63;;;20.40;99.90;;;;;;5049384;28;20566;-77
2023/05/23 09:27:38;;;;;;;48.17;34.63;;;20.40;99.90;;;;;;5046241;28;20591;-76
2023/05/23 09:30:12;;;;;;;43.20;34.05;;;20.50;99.90;;;;;;5051863;28;20060;-77
2023/05/23 09:32:39;;;;;;;44.72;34.88;;;20.60;99.90;;;;;;5049415;28;20141;-77
2023/05/23 09:35:07;;;;;;;47.45;35.92;;;20.60;99.90;;;;;;5050129;28;20227;-77
2023/05/23 09:37:36;;;;;;;43.28;34.22;;;20.70;99.90;;;;;;5048954;28;20049;-77
2023/05/23 09:40:12;;;;;;;42.00;33.27;;;20.70;99.90;;;;;;5050220;28;20049;-77
2023/05/23 09:42:43;;;;;;;47.50;33.45;;;20.70;99.90;;;;;;5053924;28;20106;-77
2023/05/23 09:45:15;;;;;;;50.78;36.08;;;20.60;99.90;;;;;;5047630;28;20049;-77
2023/05/23 09:47:51;;;;;;;48.55;35.75;;;20.50;99.90;;;;;;5046952;28;20528;-77
2023/05/23 09:50:19;;;;;;;45.30;35.22;;;20.40;99.90;;;;;;5042028;28;20523;-77
2023/05/23 09:52:46;;;;;;;47.80;35.33;;;20.40;99.90;;;;;;5048683;28;20049;-77
2023/05/23 09:55:14;;;;;;;45.03;34.60;;;20.50;99.90;;;;;;5050374;28;20052;-78
2023/05/23 09:57:42;;;;;;;43.88;34.60;;;20.50;99.90;;;;;;5049123;28;20048;-77
2023/05/23 10:00:11;;;;;;;45.65;33.47;;;20.50;99.90;;;;;;5053061;28;20048;-78
2023/05/23 10:03:11;;;;;;;46.72;33.53;;;20.50;99.90;;;;;;5051023;28;20144;-77
2023/05/23 10:05:45;;;;;;;;;;;20.40;99.90;;;;;;5065103;28;20053;-77
2023/05/23 10:08:30;;;;;;;45.40;32.70;;;20.40;99.90;;;;;;5050970;28;19975;-77
2023/05/23 10:10:56;;;;;;;50.00;32.70;;;20.50;99.90;;;;;;5053487;28;20095;-77
2023/05/23 10:13:27;;;;;;;48.42;34.13;;;20.70;99.90;;;;;;5052751;28;20048;-77
2023/05/23 10:16:04;;;;;;;45.42;32.50;;;20.80;99.90;;;;;;5053049;28;20596;-77
2023/05/23 10:18:38;;;;;;;39.80;33.05;;;20.80;99.90;;;;;;5066943;28;20045;-77
2023/05/23 10:21:14;;;;;;;44.22;33.97;;;20.80;99.90;;;;;;5066781;28;20104;-78
2023/05/23 10:23:43;;;;;;;40.80;32.42;;;20.70;99.90;;;;;;5052240;28;20079;-77
2023/05/23 10:26:10;;;;;;;42.10;31.85;;;20.80;99.90;;;;;;5052741;28;20102;-77
2023/05/23 10:28:39;;;;;;;40.17;31.02;;;20.90;99.90;;;;;;5068481;28;20095;-78
2023/05/23 10:31:06;;;;;;;43.55;32.50;;;20.90;99.90;;;;;;5053778;28;20084;-78
2023/05/23 10:33:39;;;;;;;45.03;33.22;;;20.70;99.90;;;;;;5056066;28;20427;-77
2023/05/23 10:36:18;;;;;;;42.90;32.28;;;20.80;99.90;;;;;;5054881;28;20087;-77
2023/05/23 10:38:57;;;;;;;36.63;30.30;;;20.70;99.90;;;;;;5052813;28;20041;-77
2023/05/23 10:41:52;;;;;;;39.60;31.17;;;20.60;99.90;;;;;;5050207;28;20115;-77
2023/05/23 10:44:29;;;;;;;37.95;29.15;;;20.70;99.90;;;;;;5048597;28;20094;-77
2023/05/23 10:47:00;;;;;;;38.47;28.55;;;20.80;99.90;;;;;;5052740;28;20102;-77
2023/05/23 10:49:50;;;;;;;36.45;27.35;;;20.80;99.90;;;;;;5049709;28;20120;-77
2023/05/23 10:52:17;;;;;;;35.80;29.00;;;21.00;99.90;;;;;;5051008;28;20049;-78
2023/05/23 10:54:47;;;;;;;35.35;28.35;;;21.10;99.90;;;;;;5053939;28;20045;-77
2023/05/23 10:57:19;;;;;;;33.38;28.10;;;21.10;99.90;;;;;;5054648;28;20106;-77
2023/05/23 10:59:49;;;;;;;39.28;29.60;;;21.10;99.90;;;;;;5049026;28;20045;-78
2023/05/23 11:02:25;;;;;;;36.40;29.02;;;21.00;99.90;;;;;;5047622;28;20064;-76
2023/05/23 11:05:21;;;;;;;36.70;27.70;;;20.90;99.90;;;;;;5053346;28;20083;-76
2023/05/23 11:08:13;;;;;;;36.33;28.17;;;20.90;99.90;;;;;;5047545;28;20037;-76
2023/05/23 11:10:55;;;;;;;36.15;25.67;;;21.10;99.90;;;;;;5052995;28;20122;-76
2023/05/23 11:13:22;;;;;;;39.35;27.50;;;21.30;99.90;;;;;;5053387;28;20053;-76
2023/05/23 11:15:49;;;;;;;28.17;24.58;;;21.30;99.90;;;;;;5067692;28;20548;-76
2023/05/23 11:18:25;;;;;;;31.85;24.55;;;21.40;99.90;;;;;;5052518;28;20053;-76
2023/05/23 11:20:53;;;;;;;31.75;25.15;;;21.50;99.90;;;;;;5052690;28;20049;-77
2023/05/23 11:23:21;;;;;;;33.53;26.20;;;21.60;99.90;;;;;;5052076;28;20045;-76
2023/05/23 11:25:50;;;;;;;27.83;22.77;;;21.70;99.90;;;;;;5049275;28;20457;-76
2023/05/23 11:28:18;;;;;;;37.13;24.90;;;21.80;99.90;;;;;;5048880;28;20543;-77
2023/05/23 11:30:48;;;;;;;30.95;23.42;;;21.70;99.90;;;;;;5054581;28;20044;-77
2023/05/23 11:33:16;;;;;;;;;;;21.80;99.90;;;;;;5053788;28;20057;-77
2023/05/23 11:35:47;;;;;;;29.77;21.70;;;21.80;99.90;;;;;;5054747;28;19971;-77
2023/05/23 11:38:15;;;;;;;28.63;22.73;;;21.80;99.90;;;;;;5053882;28;20056;-76
2023/05/23 11:40:46;;;;;;;29.95;23.42;;;21.80;99.90;;;;;;5054329;28;20049;-77
2023/05/23 11:43:15;;;;;;;28.50;23.40;;;21.60;99.90;;;;;;5053611;28;20045;-76
2023/05/23 11:45:42;;;;;;;26.95;23.58;;;21.70;99.90;;;;;;5053639;28;20049;-77
2023/05/23 11:48:11;;;;;;;27.23;21.92;;;21.60;99.90;;;;;;5053738;28;20049;-76
2023/05/23 11:50:45;;;;;;;28.70;22.25;;;21.60;99.90;;;;;;5053068;28;20508;-76
2023/05/23 11:53:16;;;;;;;30.48;22.13;;;21.50;99.90;;;;;;5052555;28;20098;-77
2023/05/23 11:55:54;;;;;;;27.80;22.00;;;21.50;99.90;;;;;;5052592;28;20053;-77
2023/05/23 11:58:25;;;;;;;30.52;23.27;;;21.40;99.90;;;;;;5064347;28;20049;-77
2023/05/23 12:01:01;;;;;;;23.45;20.23;;;21.50;99.90;;;;;;5051968;28;20149;-77
2023/05/23 12:03:28;;;;;;;24.23;19.58;;;21.50;99.90;;;;;;5047666;28;20131;-75
2023/05/23 12:05:55;;;;;;;24.77;21.30;;;21.50;99.90;;;;;;5049149;28;20045;-76
2023/05/23 12:08:22;;;;;;;30.17;22.90;;;21.40;99.90;;;;;;5052572;28;20077;-76
2023/05/23 12:11:00;;;;;;;24.90;22.05;;;21.40;99.90;;;;;;5058038;28;20045;-76
2023/05/23 12:13:28;;;;;;;23.67;21.17;;;21.40;99.90;;;;;;5064894;28;20053;-76
2023/05/23 12:16:00;;;;;;;24.42;20.55;;;21.50;99.90;;;;;;5052048;28;20059;-76
2023/05/23 12:18:28;;;;;;;23.90;21.20;;;21.40;99.90;;;;;;5049771;28;20053;-76
2023/05/23 12:21:00;;;;;;;28.38;21.77;;;21.40;99.90;;;;;;5052248;28;20076;-76
2023/05/23 12:23:27;;;;;;;24.92;21.80;;;21.30;99.90;;;;;;5052304;28;20420;-77
2023/05/23 12:25:55;;;;;;;23.63;21.08;;;21.20;99.90;;;;;;5052028;28;20099;-76
2023/05/23 12:28:42;;;;;;;26.63;22.77;;;21.20;99.90;;;;;;5052397;28;20476;-77
2023/05/23 12:31:09;;;;;;;27.70;23.70;;;21.20;99.90;;;;;;5049723;28;20052;-76
2023/05/23 12:33:42;;;;;;;28.58;23.27;;;21.20;99.90;;;;;;5051976;28;20048;-77
2023/05/23 12:36:13;;;;;;;32.67;23.55;;;21.20;99.90;;;;;;5052412;28;20045;-76